createdAt,value
2018-06-08T00:00:20.263Z,21.82
2018-06-08T00:02:49.019Z,21.75
2018-06-08T00:05:18.370Z,21.77
2018-06-08T00:07:47.076Z,21.78
2018-06-08T00:10:18.906Z,21.74
2018-06-08T00:12:47.752Z,21.69
2018-06-08T00:15:16.718Z,21.66
2018-06-08T00:17:45.467Z,21.60
2018-06-08T00:20:14.883Z,21.60
2018-06-08T00:22:43.880Z,21.59
2018-06-08T00:25:12.818Z,21.53
2018-06-08T00:27:41.509Z,21.54
2018-06-08T00:30:10.168Z,21.53
2018-06-08T00:32:39.006Z,21.51
2018-06-08T00:35:07.771Z,21.50
2018-06-08T00:37:36.764Z,21.47
2018-06-08T00:40:05.527Z,21.47
2018-06-08T00:42:34.562Z,21.43
2018-06-08T00:45:03.352Z,21.39
2018-06-08T00:47:32.099Z,21.36
2018-06-08T00:50:00.811Z,21.34
2018-06-08T00:52:29.499Z,21.29
2018-06-08T00:55:00.120Z,21.25
2018-06-08T00:57:29.122Z,21.22
2018-06-08T00:59:58.095Z,21.18
2018-06-08T01:02:26.799Z,21.16
2018-06-08T01:04:55.689Z,21.12
2018-06-08T01:07:24.357Z,21.09
2018-06-08T01:09:53.625Z,21.09
2018-06-08T01:12:22.563Z,21.09
2018-06-08T01:14:51.555Z,21.02
2018-06-08T01:17:20.594Z,20.97
2018-06-08T01:19:49.613Z,20.92
2018-06-08T01:22:18.444Z,20.89
2018-06-08T01:24:47.363Z,20.86
2018-06-08T01:27:16.730Z,20.81
2018-06-08T01:29:45.365Z,20.79
2018-06-08T01:32:14.320Z,20.83
2018-06-08T01:34:43.397Z,20.81
2018-06-08T01:37:12.813Z,20.75
2018-06-08T01:39:41.705Z,20.70
2018-06-08T01:42:10.332Z,20.66
2018-06-08T01:44:39.242Z,20.63
2018-06-08T01:47:07.874Z,20.60
2018-06-08T01:49:36.916Z,20.63
2018-06-08T01:52:06.572Z,20.62
2018-06-08T01:54:36.478Z,20.57
2018-06-08T01:57:05.455Z,20.53
2018-06-08T01:59:35.855Z,20.50
2018-06-08T02:02:04.803Z,20.48
2018-06-08T02:04:33.500Z,20.49
2018-06-08T02:07:02.634Z,20.47
2018-06-08T02:09:31.658Z,20.44
2018-06-08T02:12:00.375Z,20.41
2018-06-08T02:14:29.103Z,20.40
2018-06-08T02:16:57.786Z,20.36
2018-06-08T02:19:26.473Z,20.37
2018-06-08T02:21:55.129Z,20.36
2018-06-08T02:24:23.889Z,20.33
2018-06-08T02:26:52.603Z,20.31
2018-06-08T02:29:21.297Z,20.30
2018-06-08T02:31:50.183Z,20.28
2018-06-08T02:34:18.803Z,20.26
2018-06-08T02:36:48.142Z,20.22
2018-06-08T02:39:16.816Z,20.20
2018-06-08T02:41:45.520Z,20.20
2018-06-08T02:44:14.573Z,20.22
2018-06-08T02:46:46.127Z,20.15
2018-06-08T02:49:14.789Z,20.14
2018-06-08T02:51:43.451Z,20.10
2018-06-08T02:54:12.376Z,20.10
2018-06-08T02:56:42.113Z,20.09
2018-06-08T02:59:10.823Z,20.04
2018-06-08T03:01:39.666Z,20.05
2018-06-08T03:04:08.649Z,20.06
2018-06-08T03:06:38.006Z,20.03
2018-06-08T03:09:07.905Z,20.04
2018-06-08T03:11:36.794Z,19.99
2018-06-08T03:14:05.491Z,19.97
2018-06-08T03:16:34.171Z,19.95
2018-06-08T03:19:02.977Z,19.93
2018-06-08T03:21:32.079Z,19.91
2018-06-08T03:24:00.940Z,19.91
2018-06-08T03:26:29.584Z,19.92
2018-06-08T03:28:58.597Z,19.91
2018-06-08T03:31:28.176Z,19.90
2018-06-08T03:33:56.804Z,19.87
2018-06-08T03:36:25.501Z,19.89
2018-06-08T03:38:54.139Z,19.87
2018-06-08T03:41:23.060Z,19.84
2018-06-08T03:43:52.445Z,19.81
2018-06-08T03:46:21.492Z,19.80
2018-06-08T03:48:50.449Z,19.80
2018-06-08T03:51:19.416Z,19.78
2018-06-08T03:53:48.113Z,19.79
2018-06-08T03:56:16.868Z,19.83
2018-06-08T03:58:45.486Z,19.81
2018-06-08T04:01:14.127Z,19.80
2018-06-08T04:03:42.762Z,19.79
2018-06-08T04:06:11.473Z,19.80
2018-06-08T04:08:40.186Z,19.81
2018-06-08T04:11:08.835Z,19.84
2018-06-08T04:13:37.427Z,19.82
2018-06-08T04:16:06.849Z,19.81
2018-06-08T04:18:35.439Z,19.82
2018-06-08T04:21:04.273Z,19.86
2018-06-08T04:23:33.196Z,19.86
2018-06-08T04:26:02.355Z,19.86
2018-06-08T04:28:31.178Z,19.90
2018-06-08T04:31:00.046Z,19.87
2018-06-08T04:33:28.696Z,19.88
2018-06-08T04:35:58.503Z,19.92
2018-06-08T04:38:29.334Z,19.93
2018-06-08T04:40:57.956Z,19.96
2018-06-08T04:43:26.887Z,19.99
2018-06-08T04:45:55.638Z,20.03
2018-06-08T04:48:24.383Z,20.04
2018-06-08T04:50:53.301Z,20.11
2018-06-08T04:53:22.628Z,20.11
2018-06-08T04:55:51.211Z,20.12
2018-06-08T04:58:20.229Z,20.16
2018-06-08T05:00:48.963Z,20.21
2018-06-08T05:03:17.680Z,20.24
2018-06-08T05:05:46.500Z,20.23
2018-06-08T05:08:15.506Z,20.25
2018-06-08T05:10:44.542Z,20.24
2018-06-08T05:13:13.615Z,20.28
2018-06-08T05:15:42.342Z,20.28
2018-06-08T05:18:11.302Z,20.27
2018-06-08T05:20:39.979Z,20.31
2018-06-08T05:23:08.644Z,20.38
2018-06-08T05:25:37.692Z,20.43
2018-06-08T05:28:06.616Z,20.47
2018-06-08T05:30:35.869Z,20.52
2018-06-08T05:33:04.784Z,20.62
2018-06-08T05:35:33.735Z,20.66
2018-06-08T05:38:02.561Z,20.71
2018-06-08T05:40:31.996Z,20.73
2018-06-08T05:43:00.892Z,20.74
2018-06-08T05:45:29.688Z,20.79
2018-06-08T05:47:58.683Z,20.89
2018-06-08T05:50:27.949Z,20.91
2018-06-08T05:52:56.654Z,20.98
2018-06-08T05:55:27.077Z,21.03
2018-06-08T05:57:55.868Z,21.17
2018-06-08T06:00:24.908Z,21.22
2018-06-08T06:02:53.822Z,21.26
2018-06-08T06:05:23.169Z,21.34
2018-06-08T06:07:52.086Z,21.38
2018-06-08T06:10:21.077Z,21.43
2018-06-08T06:12:49.976Z,21.44
2018-06-08T06:15:19.162Z,21.47
2018-06-08T06:17:48.383Z,21.57
2018-06-08T06:20:17.085Z,21.64
2018-06-08T06:22:45.941Z,21.75
2018-06-08T06:25:14.692Z,21.77
2018-06-08T06:27:43.416Z,21.79
2018-06-08T06:30:12.168Z,21.84
2018-06-08T06:32:40.853Z,21.95
2018-06-08T06:35:10.068Z,22.01
2018-06-08T06:37:39.169Z,22.18
2018-06-08T06:40:07.862Z,22.30
2018-06-08T06:42:36.788Z,22.49
2018-06-08T06:45:07.097Z,22.73
2018-06-08T06:47:36.124Z,22.94
2018-06-08T06:50:05.863Z,23.13
2018-06-08T06:52:34.573Z,23.41
2018-06-08T06:55:03.276Z,23.74
2018-06-08T06:57:31.991Z,24.05
2018-06-08T07:00:00.811Z,24.42
2018-06-08T07:02:30.647Z,24.80
2018-06-08T07:04:59.822Z,25.07
2018-06-08T07:07:28.608Z,25.42
2018-06-08T07:09:57.873Z,25.79
2018-06-08T07:12:26.694Z,26.09
2018-06-08T07:14:55.652Z,26.48
2018-06-08T07:17:24.513Z,26.76
2018-06-08T07:19:53.534Z,27.11
2018-06-08T07:22:22.265Z,27.17
2018-06-08T07:24:51.345Z,27.69
2018-06-08T07:27:20.269Z,28.07
2018-06-08T07:29:49.246Z,28.38
2018-06-08T07:32:18.305Z,28.86
2018-06-08T07:34:47.923Z,29.10
2018-06-08T07:37:16.859Z,29.52
2018-06-08T07:39:45.561Z,29.56
2018-06-08T07:42:14.382Z,29.64
2018-06-08T07:44:43.121Z,29.63
2018-06-08T07:47:11.820Z,29.58
2018-06-08T07:49:40.840Z,29.45
2018-06-08T07:52:09.568Z,29.27
2018-06-08T07:54:38.495Z,29.28
2018-06-08T07:57:07.881Z,29.35
2018-06-08T07:59:36.686Z,29.10
2018-06-08T08:02:05.436Z,29.36
2018-06-08T08:04:34.204Z,29.39
2018-06-08T08:07:03.335Z,29.57
2018-06-08T08:09:32.087Z,29.80
2018-06-08T08:12:00.850Z,30.04
2018-06-08T08:14:29.549Z,30.25
2018-06-08T08:16:58.371Z,29.89
2018-06-08T08:19:27.581Z,29.20
2018-06-08T08:21:56.301Z,28.84
2018-06-08T08:24:25.015Z,28.99
2018-06-08T08:26:53.953Z,29.73
2018-06-08T08:29:22.899Z,30.66
2018-06-08T08:31:51.567Z,31.41
2018-06-08T08:34:21.605Z,31.35
2018-06-08T08:36:50.333Z,31.73
2018-06-08T08:39:19.073Z,31.85
2018-06-08T08:41:49.921Z,32.03
2018-06-08T08:44:18.638Z,32.27
2018-06-08T08:46:47.695Z,32.66
2018-06-08T08:49:16.397Z,32.92
2018-06-08T08:51:45.273Z,32.86
2018-06-08T08:54:13.973Z,33.07
2018-06-08T08:56:42.642Z,33.12
2018-06-08T08:59:11.239Z,33.41
2018-06-08T09:01:40.240Z,33.33
2018-06-08T09:04:09.522Z,33.25
2018-06-08T09:06:38.269Z,33.33
2018-06-08T09:09:07.735Z,33.12
2018-06-08T09:11:36.464Z,33.11
2018-06-08T09:14:05.384Z,33.11
2018-06-08T09:16:34.147Z,33.14
2018-06-08T09:19:02.876Z,32.66
2018-06-08T09:21:31.937Z,32.57
2018-06-08T09:24:00.991Z,32.54
2018-06-08T09:26:29.886Z,32.44
2018-06-08T09:28:58.536Z,32.38
2018-06-08T09:31:27.565Z,32.33
2018-06-08T09:33:56.504Z,32.04
2018-06-08T09:36:25.261Z,31.68
2018-06-08T09:38:53.989Z,31.07
2018-06-08T09:41:22.925Z,30.13
2018-06-08T09:43:51.686Z,29.47
2018-06-08T09:46:20.811Z,29.25
2018-06-08T09:48:49.603Z,29.18
2018-06-08T09:51:18.306Z,28.97
2018-06-08T09:53:47.342Z,28.95
2018-06-08T09:56:16.279Z,28.91
2018-06-08T09:58:45.327Z,28.87
2018-06-08T10:01:14.360Z,28.82
2018-06-08T10:03:43.199Z,28.83
2018-06-08T10:06:11.966Z,28.89
2018-06-08T10:08:40.826Z,28.90
2018-06-08T10:11:09.815Z,29.01
2018-06-08T10:13:38.524Z,29.00
2018-06-08T10:16:07.258Z,28.97
2018-06-08T10:18:36.080Z,29.01
2018-06-08T10:21:05.180Z,28.94
2018-06-08T10:23:37.381Z,28.87
2018-06-08T10:26:06.450Z,29.00
2018-06-08T10:28:35.918Z,28.98
2018-06-08T10:31:04.648Z,29.34
2018-06-08T10:33:33.611Z,29.16
2018-06-08T10:36:03.042Z,29.08
2018-06-08T10:38:32.199Z,29.32
2018-06-08T10:41:00.947Z,29.63
2018-06-08T10:43:30.835Z,29.89
2018-06-08T10:45:59.543Z,30.01
2018-06-08T10:48:28.395Z,30.24
2018-06-08T10:50:57.223Z,30.81
2018-06-08T10:53:25.817Z,31.47
2018-06-08T10:55:54.590Z,31.78
2018-06-08T10:58:23.330Z,31.96
2018-06-08T11:00:51.960Z,31.76
2018-06-08T11:03:20.954Z,31.09
2018-06-08T11:05:49.890Z,30.76
2018-06-08T11:08:18.621Z,30.53
2018-06-08T11:10:47.606Z,30.43
2018-06-08T11:13:16.239Z,30.47
2018-06-08T11:15:44.986Z,30.17
2018-06-08T11:18:13.735Z,30.05
2018-06-08T11:20:42.458Z,29.99
2018-06-08T11:23:12.134Z,30.08
2018-06-08T11:25:41.708Z,30.00
2018-06-08T11:28:10.402Z,30.04
2018-06-08T11:30:39.110Z,30.12
2018-06-08T11:33:08.280Z,30.47
2018-06-08T11:35:36.948Z,31.42
2018-06-08T11:38:05.774Z,32.64
2018-06-08T11:40:34.605Z,33.92
2018-06-08T11:43:03.742Z,34.92
2018-06-08T11:45:32.454Z,35.51
2018-06-08T11:48:01.386Z,35.13
2018-06-08T11:50:31.015Z,34.93
2018-06-08T11:52:59.781Z,34.18
2018-06-08T11:55:28.468Z,33.46
2018-06-08T11:57:57.158Z,33.85
2018-06-08T12:00:26.052Z,34.93
2018-06-08T12:02:54.876Z,36.81
2018-06-08T12:05:23.590Z,38.14
2018-06-08T12:07:52.607Z,39.76
2018-06-08T12:10:21.424Z,41.70
2018-06-08T12:12:50.437Z,43.00
2018-06-08T12:15:20.138Z,44.05
2018-06-08T12:17:49.789Z,45.30
2018-06-08T12:20:18.952Z,46.43
2018-06-08T12:22:47.908Z,47.06
2018-06-08T12:25:16.708Z,47.44
2018-06-08T12:27:45.454Z,47.50
2018-06-08T12:30:14.224Z,47.53
2018-06-08T12:32:42.954Z,48.02
2018-06-08T12:35:11.848Z,48.36
2018-06-08T12:37:40.734Z,48.44
2018-06-08T12:40:10.031Z,48.14
2018-06-08T12:42:38.930Z,48.22
2018-06-08T12:45:07.754Z,49.26
2018-06-08T12:47:36.515Z,48.93
2018-06-08T12:50:05.692Z,50.27
2018-06-08T12:52:34.392Z,50.46
2018-06-08T12:55:03.179Z,50.77
2018-06-08T12:57:32.067Z,50.87
2018-06-08T13:00:00.877Z,51.54
2018-06-08T13:02:29.817Z,51.03
2018-06-08T13:04:58.744Z,51.62
2018-06-08T13:07:27.669Z,52.07
2018-06-08T13:09:56.376Z,52.38
2018-06-08T13:12:25.007Z,51.42
2018-06-08T13:14:53.868Z,51.01
2018-06-08T13:17:22.927Z,50.51
2018-06-08T13:19:51.955Z,51.38
2018-06-08T13:22:20.981Z,51.84
2018-06-08T13:24:49.752Z,50.57
2018-06-08T13:27:18.796Z,51.59
2018-06-08T13:29:47.451Z,51.96
2018-06-08T13:32:16.181Z,52.38
2018-06-08T13:34:45.235Z,52.01
2018-06-08T13:37:13.922Z,51.92
2018-06-08T13:39:43.076Z,51.11
2018-06-08T13:42:12.165Z,51.35
2018-06-08T13:44:41.132Z,51.89
2018-06-08T13:47:09.788Z,51.38
2018-06-08T13:49:38.762Z,50.42
2018-06-08T13:52:07.469Z,51.12
2018-06-08T13:54:36.171Z,50.92
2018-06-08T13:57:04.925Z,51.00
2018-06-08T13:59:33.614Z,51.19
2018-06-08T14:02:02.317Z,49.77
2018-06-08T14:04:31.057Z,50.13
2018-06-08T14:06:59.865Z,49.60
2018-06-08T14:09:28.672Z,48.81
2018-06-08T14:11:57.384Z,47.59
2018-06-08T14:14:26.324Z,46.22
2018-06-08T14:16:55.318Z,45.16
2018-06-08T14:19:24.122Z,44.37
2018-06-08T14:21:53.005Z,43.08
2018-06-08T14:24:21.827Z,42.52
2018-06-08T14:26:51.034Z,41.93
2018-06-08T14:29:20.327Z,41.14
2018-06-08T14:31:49.012Z,40.36
2018-06-08T14:34:18.105Z,39.30
2018-06-08T14:36:46.902Z,38.47
2018-06-08T14:39:15.647Z,37.62
2018-06-08T14:41:44.543Z,37.27
2018-06-08T14:44:13.499Z,36.73
2018-06-08T14:46:42.154Z,35.97
2018-06-08T14:49:10.933Z,35.67
2018-06-08T14:51:39.912Z,35.34
2018-06-08T14:54:08.938Z,35.13
2018-06-08T14:56:37.836Z,34.97
2018-06-08T14:59:06.640Z,34.62
2018-06-08T15:01:35.411Z,34.22
2018-06-08T15:04:04.213Z,33.98
2018-06-08T15:06:32.949Z,33.73
2018-06-08T15:09:02.088Z,33.59
2018-06-08T15:11:31.064Z,33.46
2018-06-08T15:14:00.091Z,33.20
2018-06-08T15:16:29.031Z,32.91
2018-06-08T15:18:57.808Z,32.76
2018-06-08T15:21:26.469Z,32.58
2018-06-08T15:23:55.141Z,32.71
2018-06-08T15:26:24.039Z,32.60
2018-06-08T15:28:53.002Z,32.44
2018-06-08T15:31:21.720Z,32.36
2018-06-08T15:33:50.406Z,32.22
2018-06-08T15:36:19.332Z,32.29
2018-06-08T15:38:49.157Z,32.37
2018-06-08T15:41:17.976Z,32.43
2018-06-08T15:43:47.267Z,32.43
2018-06-08T15:46:16.319Z,32.32
2018-06-08T15:48:45.005Z,32.05
2018-06-08T15:51:13.815Z,31.92
2018-06-08T15:53:42.578Z,31.76
2018-06-08T15:56:11.434Z,31.72
2018-06-08T15:58:40.619Z,31.70
2018-06-08T16:01:09.420Z,31.58
2018-06-08T16:03:38.407Z,31.41
2018-06-08T16:06:07.210Z,31.35
2018-06-08T16:08:36.152Z,31.28
2018-06-08T16:11:05.053Z,31.15
2018-06-08T16:13:33.956Z,31.09
2018-06-08T16:16:02.778Z,30.99
2018-06-08T16:18:31.969Z,30.97
2018-06-08T16:21:03.616Z,30.90
2018-06-08T16:23:32.962Z,30.80
2018-06-08T16:26:01.910Z,30.74
2018-06-08T16:28:30.601Z,30.69
2018-06-08T16:31:00.211Z,30.69
2018-06-08T16:33:29.550Z,30.61
2018-06-08T16:35:58.459Z,30.62
2018-06-08T16:38:27.611Z,30.56
2018-06-08T16:40:56.389Z,30.61
2018-06-08T16:43:32.033Z,30.60
2018-06-08T16:46:01.372Z,30.62
2018-06-08T16:48:30.418Z,30.56
2018-06-08T16:50:59.689Z,30.46
2018-06-08T16:53:28.773Z,30.42
2018-06-08T16:55:57.690Z,30.33
2018-06-08T16:58:26.737Z,30.22
2018-06-08T17:00:55.859Z,30.17
2018-06-08T17:03:24.590Z,30.15
2018-06-08T17:05:53.468Z,30.05
2018-06-08T17:08:22.223Z,30.00
2018-06-08T17:10:51.464Z,29.97
2018-06-08T17:13:20.338Z,29.94
2018-06-08T17:15:49.368Z,29.85
2018-06-08T17:18:18.275Z,29.84
2018-06-08T17:20:47.108Z,29.85
2018-06-08T17:23:15.824Z,29.83
2018-06-08T17:25:44.675Z,29.72
2018-06-08T17:28:13.640Z,29.68
2018-06-08T17:30:42.480Z,29.68
2018-06-08T17:33:11.496Z,29.66
2018-06-08T17:35:40.253Z,29.65
2018-06-08T17:38:09.104Z,29.62
2018-06-08T17:40:38.312Z,29.58
2018-06-08T17:43:07.595Z,29.56
2018-06-08T17:45:36.477Z,29.53
2018-06-08T17:48:05.534Z,29.45
2018-06-08T17:50:34.602Z,29.42
2018-06-08T17:53:03.424Z,29.32
2018-06-08T17:55:33.259Z,29.29
2018-06-08T17:58:02.238Z,29.26
2018-06-08T18:00:30.914Z,29.20
2018-06-08T18:02:59.648Z,29.18
2018-06-08T18:05:28.493Z,29.18
2018-06-08T18:07:57.283Z,29.15
2018-06-08T18:10:26.272Z,29.10
2018-06-08T18:12:54.987Z,29.08
2018-06-08T18:15:23.700Z,29.04
2018-06-08T18:17:53.494Z,29.01
2018-06-08T18:20:22.441Z,28.98
2018-06-08T18:22:51.128Z,28.92
2018-06-08T18:25:20.672Z,28.86
2018-06-08T18:27:49.405Z,28.79
2018-06-08T18:30:18.075Z,28.74
2018-06-08T18:32:47.306Z,28.72
2018-06-08T18:35:16.420Z,28.70
2018-06-08T18:37:45.135Z,28.65
2018-06-08T18:40:13.879Z,28.63
2018-06-08T18:42:48.298Z,28.59
2018-06-08T18:45:17.168Z,28.55
2018-06-08T18:47:46.244Z,28.52
2018-06-08T18:50:15.400Z,28.47
2018-06-08T18:52:44.509Z,28.45
2018-06-08T18:55:13.529Z,28.40
2018-06-08T18:57:42.431Z,28.37
2018-06-08T19:00:11.527Z,28.34
2018-06-08T19:02:40.461Z,28.28
2018-06-08T19:05:09.195Z,28.24
2018-06-08T19:07:37.965Z,28.22
2018-06-08T19:10:06.693Z,28.16
2018-06-08T19:12:35.979Z,28.13
2018-06-08T19:15:04.769Z,28.11
2018-06-08T19:17:33.686Z,28.09
2018-06-08T19:20:02.610Z,28.06
2018-06-08T19:22:31.441Z,28.03
2018-06-08T19:25:00.166Z,28.01
2018-06-08T19:27:29.153Z,27.97
2018-06-08T19:29:57.950Z,27.96
2018-06-08T19:32:27.227Z,27.89
2018-06-08T19:34:56.226Z,27.85
2018-06-08T19:37:25.895Z,27.84
2018-06-08T19:39:54.985Z,27.80
2018-06-08T19:42:24.170Z,27.76
2018-06-08T19:44:53.131Z,27.72
2018-06-08T19:47:22.201Z,27.69
2018-06-08T19:49:50.936Z,27.63
2018-06-08T19:52:19.929Z,27.58
2018-06-08T19:54:48.954Z,27.58
2018-06-08T19:57:18.390Z,27.55
2018-06-08T19:59:47.411Z,27.50
2018-06-08T20:02:16.811Z,27.47
2018-06-08T20:04:45.563Z,27.42
2018-06-08T20:07:14.417Z,27.40
2018-06-08T20:09:43.301Z,27.39
2018-06-08T20:12:12.382Z,27.39
2018-06-08T20:14:44.071Z,27.33
2018-06-08T20:17:12.861Z,27.30
2018-06-08T20:19:41.936Z,27.27
2018-06-08T20:22:10.674Z,27.21
2018-06-08T20:24:39.466Z,27.19
2018-06-08T20:27:08.598Z,27.16
2018-06-08T20:29:37.245Z,27.13
2018-06-08T20:32:05.934Z,27.14
2018-06-08T20:34:35.662Z,27.13
2018-06-08T20:37:04.337Z,27.09
2018-06-08T20:39:33.467Z,27.07
2018-06-08T20:42:02.325Z,27.02
2018-06-08T20:44:30.956Z,26.98
2018-06-08T20:46:59.955Z,26.94
2018-06-08T20:49:28.578Z,26.87
2018-06-08T20:51:57.269Z,26.81
2018-06-08T20:54:26.467Z,26.80
2018-06-08T20:57:06.228Z,26.79
2018-06-08T20:59:34.889Z,26.77
2018-06-08T21:02:03.626Z,26.74
2018-06-08T21:04:32.907Z,26.70
2018-06-08T21:07:01.598Z,26.65
2018-06-08T21:09:30.439Z,26.65
2018-06-08T21:11:59.226Z,26.60
2018-06-08T21:14:28.014Z,26.60
2018-06-08T21:16:56.655Z,26.55
2018-06-08T21:19:25.433Z,26.51
2018-06-08T21:21:54.247Z,26.46
2018-06-08T21:24:23.171Z,26.47
2018-06-08T21:26:51.919Z,26.42
2018-06-08T21:29:20.754Z,26.41
2018-06-08T21:31:49.728Z,26.40
2018-06-08T21:34:18.854Z,26.33
2018-06-08T21:36:47.614Z,26.34
2018-06-08T21:39:16.732Z,26.30
2018-06-08T21:41:45.582Z,26.25
2018-06-08T21:44:14.672Z,26.16
2018-06-08T21:46:43.434Z,26.08
2018-06-08T21:49:12.618Z,26.07
2018-06-08T21:51:41.493Z,26.01
2018-06-08T21:54:10.161Z,26.01
2018-06-08T21:56:39.006Z,26.00
2018-06-08T21:59:08.203Z,25.95
2018-06-08T22:01:36.926Z,25.91
2018-06-08T22:04:05.710Z,25.91
2018-06-08T22:06:34.398Z,25.92
2018-06-08T22:09:03.120Z,25.93
2018-06-08T22:11:32.303Z,25.85
2018-06-08T22:14:00.933Z,25.86
2018-06-08T22:16:29.621Z,25.80
2018-06-08T22:18:58.673Z,25.73
2018-06-08T22:21:27.682Z,25.69
2018-06-08T22:23:56.564Z,25.66
2018-06-08T22:26:25.539Z,25.62
2018-06-08T22:28:55.050Z,25.61
2018-06-08T22:31:23.708Z,25.55
2018-06-08T22:33:52.367Z,25.53
2018-06-08T22:36:21.018Z,25.57
2018-06-08T22:38:49.670Z,25.49
2018-06-08T22:41:18.309Z,25.44
2018-06-08T22:43:47.192Z,25.41
2018-06-08T22:46:16.226Z,25.40
2018-06-08T22:48:45.135Z,25.40
2018-06-08T22:51:14.241Z,25.35
2018-06-08T22:53:42.909Z,25.30
2018-06-08T22:56:11.612Z,25.25
2018-06-08T22:58:40.308Z,25.24
2018-06-08T23:01:09.422Z,25.22
2018-06-08T23:03:38.707Z,25.16
2018-06-08T23:06:07.475Z,25.13
2018-06-08T23:08:36.402Z,25.10
2018-06-08T23:11:05.408Z,25.08
2018-06-08T23:13:34.125Z,25.03
2018-06-08T23:16:02.748Z,25.00
2018-06-08T23:18:31.692Z,24.92
2018-06-08T23:21:00.359Z,24.90
2018-06-08T23:23:29.161Z,24.84
2018-06-08T23:25:58.508Z,24.88
2018-06-08T23:28:27.160Z,24.89
2018-06-08T23:30:55.952Z,24.83
2018-06-08T23:33:24.932Z,24.78
2018-06-08T23:35:53.931Z,24.79
2018-06-08T23:38:22.931Z,24.73
2018-06-08T23:40:51.838Z,24.68
2018-06-08T23:43:20.749Z,24.66
2018-06-08T23:45:49.963Z,24.64
2018-06-08T23:48:18.628Z,24.60
2018-06-08T23:50:47.295Z,24.57
2018-06-08T23:53:16.237Z,24.56
2018-06-08T23:55:45.244Z,24.59
2018-06-08T23:58:14.220Z,24.58
